createdAt,value
2018-09-12T00:00:37.831Z,76.61
2018-09-12T00:01:37.849Z,76.90
2018-09-12T00:02:37.885Z,77.58
2018-09-12T00:03:37.919Z,77.86
2018-09-12T00:04:37.864Z,78.63
2018-09-12T00:05:37.919Z,78.73
2018-09-12T00:06:37.925Z,78.25
2018-09-12T00:07:37.864Z,77.86
2018-09-12T00:08:37.928Z,76.90
2018-09-12T00:09:37.871Z,78.15
2018-09-12T00:10:37.887Z,78.53
2018-09-12T00:11:37.871Z,76.46
2018-09-12T00:12:37.870Z,77.67
2018-09-12T00:13:37.882Z,80.32
2018-09-12T00:14:37.900Z,81.38
2018-09-12T00:15:37.922Z,78.25
2018-09-12T00:16:37.874Z,78.73
2018-09-12T00:17:37.903Z,76.94
2018-09-12T00:18:37.959Z,76.36
2018-09-12T00:19:37.923Z,75.63
2018-09-12T00:20:37.957Z,75.79
2018-09-12T00:21:37.875Z,77.48
2018-09-12T00:22:37.881Z,78.63
2018-09-12T00:23:37.900Z,78.28
2018-09-12T00:24:37.890Z,78.73
2018-09-12T00:25:37.909Z,77.38
2018-09-12T00:26:37.882Z,79.02
2018-09-12T00:27:37.893Z,78.73
2018-09-12T00:28:37.926Z,79.30
2018-09-12T00:29:37.921Z,78.06
2018-09-12T00:30:37.916Z,77.04
2018-09-12T00:31:37.944Z,77.67
2018-09-12T00:32:37.953Z,78.34
2018-09-12T00:33:37.939Z,78.63
2018-09-12T00:34:38.008Z,79.30
2018-09-12T00:35:37.904Z,74.96
2018-09-12T00:36:38.146Z,72.49
2018-09-12T00:37:40.443Z,71.76
2018-09-12T00:38:37.927Z,70.98
2018-09-12T00:39:37.958Z,70.50
2018-09-12T00:40:37.961Z,72.39
2018-09-12T00:41:37.964Z,74.29
2018-09-12T00:42:37.930Z,75.88
2018-09-12T00:43:37.983Z,77.19
2018-09-12T00:44:37.982Z,77.81
2018-09-12T00:45:38.049Z,78.30
2018-09-12T00:46:37.979Z,77.09
2018-09-12T00:47:37.925Z,77.76
2018-09-12T00:48:37.948Z,78.15
2018-09-12T00:49:37.930Z,77.38
2018-09-12T00:50:38.003Z,79.07
2018-09-12T00:51:37.987Z,78.34
2018-09-12T00:52:37.932Z,78.78
2018-09-12T00:53:37.931Z,78.06
2018-09-12T00:54:37.930Z,77.96
2018-09-12T00:55:37.936Z,79.55
2018-09-12T00:56:37.954Z,78.06
2018-09-12T00:57:37.938Z,77.29
2018-09-12T00:58:37.959Z,78.88
2018-09-12T00:59:37.939Z,80.22
2018-09-12T01:00:37.946Z,80.38
2018-09-12T01:01:37.947Z,79.55
2018-09-12T01:02:37.951Z,79.17
2018-09-12T01:03:37.955Z,79.46
2018-09-12T01:04:37.955Z,79.36
2018-09-12T01:05:37.953Z,78.73
2018-09-12T01:06:37.960Z,79.94
2018-09-12T01:07:37.959Z,80.22
2018-09-12T01:08:37.959Z,80.32
2018-09-12T01:09:37.975Z,80.22
2018-09-12T01:10:37.966Z,80.71
2018-09-12T01:11:37.963Z,80.61
2018-09-12T01:12:37.968Z,80.32
2018-09-12T01:13:37.973Z,78.44
2018-09-12T01:14:37.969Z,75.02
2018-09-12T01:15:37.975Z,74.44
2018-09-12T01:16:37.976Z,73.13
2018-09-12T01:17:37.983Z,73.80
2018-09-12T01:18:37.989Z,75.02
2018-09-12T01:19:38.043Z,76.07
2018-09-12T01:20:37.977Z,75.21
2018-09-12T01:21:38.019Z,74.57
2018-09-12T01:22:37.978Z,73.96
2018-09-12T01:23:37.986Z,74.34
2018-09-12T01:24:37.996Z,74.09
2018-09-12T01:25:37.985Z,72.55
2018-09-12T01:26:37.987Z,72.30
2018-09-12T01:27:37.993Z,71.53
2018-09-12T01:28:37.986Z,71.53
2018-09-12T01:29:37.991Z,72.20
2018-09-12T01:30:38.044Z,71.78
2018-09-12T01:31:38.004Z,72.45
2018-09-12T01:32:37.997Z,72.26
2018-09-12T01:33:38.001Z,73.42
2018-09-12T01:34:38.021Z,73.51
2018-09-12T01:35:38.003Z,73.51
2018-09-12T01:36:38.007Z,73.32
2018-09-12T01:37:38.018Z,74.25
2018-09-12T01:38:38.010Z,75.46
2018-09-12T01:39:38.015Z,75.11
2018-09-12T01:40:38.062Z,76.61
2018-09-12T01:41:38.013Z,77.73
2018-09-12T01:42:38.011Z,78.11
2018-09-12T01:43:38.023Z,77.76
2018-09-12T01:44:38.036Z,74.63
2018-09-12T01:45:38.050Z,74.25
2018-09-12T01:46:38.022Z,75.02
2018-09-12T01:47:38.024Z,74.98
2018-09-12T01:48:38.029Z,76.42
2018-09-12T01:49:38.051Z,76.52
2018-09-12T01:50:38.033Z,77.63
2018-09-12T01:51:38.034Z,77.53
2018-09-12T01:52:38.034Z,76.04
2018-09-12T01:53:38.037Z,77.53
2018-09-12T01:54:38.038Z,79.61
2018-09-12T01:55:38.043Z,81.87
2018-09-12T01:56:38.047Z,83.37
2018-09-12T01:57:38.050Z,84.23
2018-09-12T01:58:38.035Z,84.42
2018-09-12T01:59:38.045Z,83.37
2018-09-12T02:00:38.041Z,84.61
2018-09-12T02:01:38.045Z,82.74
2018-09-12T02:02:38.045Z,79.07
2018-09-12T02:03:38.056Z,78.88
2018-09-12T02:04:38.054Z,79.32
2018-09-12T02:05:38.073Z,79.71
2018-09-12T02:06:38.065Z,78.50
2018-09-12T02:07:38.051Z,79.32
2018-09-12T02:08:38.061Z,81.05
2018-09-12T02:09:38.055Z,80.47
2018-09-12T02:10:38.063Z,76.61
2018-09-12T02:11:38.078Z,75.46
2018-09-12T02:12:38.072Z,74.05
2018-09-12T02:13:38.067Z,76.14
2018-09-12T02:14:38.063Z,76.23
2018-09-12T02:15:38.089Z,77.44
2018-09-12T02:16:38.078Z,77.83
2018-09-12T02:17:38.068Z,78.50
2018-09-12T02:18:38.074Z,79.13
2018-09-12T02:19:38.069Z,80.53
2018-09-12T02:20:38.105Z,82.12
2018-09-12T02:21:38.116Z,80.76
2018-09-12T02:22:38.103Z,78.40
2018-09-12T02:23:38.091Z,77.63
2018-09-12T02:24:38.079Z,78.94
2018-09-12T02:25:38.083Z,79.22
2018-09-12T02:26:38.074Z,77.09
2018-09-12T02:27:38.077Z,76.67
2018-09-12T02:28:38.077Z,75.56
2018-09-12T02:29:38.082Z,75.56
2018-09-12T02:30:38.090Z,76.86
2018-09-12T02:31:38.092Z,75.75
2018-09-12T02:32:38.091Z,74.50
2018-09-12T02:33:38.084Z,77.83
2018-09-12T02:34:38.103Z,77.73
2018-09-12T02:35:38.084Z,76.52
2018-09-12T02:36:38.099Z,77.98
2018-09-12T02:37:38.085Z,79.71
2018-09-12T02:38:38.093Z,80.66
2018-09-12T02:39:38.089Z,81.30
2018-09-12T02:40:38.090Z,81.40
2018-09-12T02:41:38.097Z,79.03
2018-09-12T02:42:38.094Z,76.67
2018-09-12T02:43:38.099Z,76.86
2018-09-12T02:44:38.096Z,78.55
2018-09-12T02:45:38.116Z,78.94
2018-09-12T02:46:38.101Z,79.03
2018-09-12T02:47:38.110Z,76.09
2018-09-12T02:48:38.118Z,76.19
2018-09-12T02:49:38.129Z,76.09
2018-09-12T02:50:38.119Z,77.73
2018-09-12T02:51:38.106Z,79.42
2018-09-12T02:52:38.126Z,77.73
2018-09-12T02:53:38.117Z,78.65
2018-09-12T02:54:38.111Z,80.82
2018-09-12T02:55:38.105Z,78.40
2018-09-12T03:14:48.021Z,80.38
2018-09-12T03:15:47.996Z,79.76
2018-09-12T03:16:47.989Z,82.31
2018-09-12T03:17:47.990Z,83.08
2018-09-12T03:18:47.998Z,82.51
2018-09-12T03:19:47.981Z,83.27
2018-09-12T03:20:48.175Z,84.48
2018-09-12T03:21:47.981Z,85.19
2018-09-12T03:22:47.981Z,83.56
2018-09-12T03:23:47.980Z,84.42
2018-09-12T03:24:47.974Z,85.15
2018-09-12T03:25:47.978Z,86.74
2018-09-12T03:26:47.976Z,87.21
2018-09-12T03:27:47.974Z,83.12
2018-09-12T03:28:47.968Z,82.51
2018-09-12T03:29:47.969Z,84.23
2018-09-12T03:30:47.971Z,84.95
2018-09-12T03:31:47.972Z,83.47
2018-09-12T03:32:47.978Z,83.65
2018-09-12T03:33:47.971Z,82.51
2018-09-12T03:34:47.968Z,81.97
2018-09-12T03:35:47.969Z,82.70
2018-09-12T03:36:47.971Z,79.61
2018-09-12T03:37:47.968Z,80.24
2018-09-12T03:38:47.984Z,82.21
2018-09-12T03:39:47.986Z,84.09
2018-09-12T03:40:47.985Z,84.04
2018-09-12T03:41:47.973Z,81.84
2018-09-12T03:42:47.976Z,82.31
2018-09-12T03:43:47.976Z,82.79
2018-09-12T03:44:47.979Z,82.31
2018-09-12T03:45:47.971Z,81.59
2018-09-12T03:46:47.971Z,81.64
2018-09-12T03:47:47.970Z,82.31
2018-09-12T03:48:47.974Z,82.03
2018-09-12T03:49:47.974Z,81.59
2018-09-12T03:50:47.988Z,81.30
2018-09-12T03:51:48.004Z,81.30
2018-09-12T03:52:47.984Z,82.12
2018-09-12T03:53:47.989Z,80.53
2018-09-12T03:54:47.985Z,81.59
2018-09-12T03:55:47.980Z,81.64
2018-09-12T03:56:48.006Z,81.54
2018-09-12T03:57:47.978Z,84.09
2018-09-12T03:58:47.976Z,84.09
2018-09-12T03:59:47.974Z,83.14
2018-09-12T04:00:47.984Z,82.51
2018-09-12T04:01:47.984Z,81.16
2018-09-12T04:02:48.021Z,82.94
2018-09-12T04:03:47.988Z,84.58
2018-09-12T04:04:47.979Z,84.67
2018-09-12T04:05:47.978Z,84.95
2018-09-12T04:06:47.982Z,81.84
2018-09-12T04:07:47.983Z,81.20
2018-09-12T04:08:47.981Z,81.35
2018-09-12T04:09:47.994Z,81.45
2018-09-12T04:10:47.990Z,82.65
2018-09-12T04:11:47.989Z,83.04
2018-09-12T04:12:48.021Z,82.12
2018-09-12T04:13:47.989Z,82.79
2018-09-12T04:14:48.037Z,81.35
2018-09-12T04:15:48.006Z,81.16
2018-09-12T04:16:48.075Z,82.03
2018-09-12T04:17:47.994Z,81.35
2018-09-12T04:18:48.018Z,82.41
2018-09-12T04:19:48.049Z,82.94
2018-09-12T04:20:48.086Z,81.40
2018-09-12T04:21:48.016Z,82.41
2018-09-12T04:22:48.057Z,83.08
2018-09-12T04:23:47.991Z,80.82
2018-09-12T04:24:48.037Z,81.84
2018-09-12T04:25:48.039Z,81.35
2018-09-12T04:26:48.077Z,81.16
2018-09-12T04:27:48.066Z,82.21
2018-09-12T04:28:48.050Z,81.54
2018-09-12T04:29:48.016Z,83.04
2018-09-12T04:30:48.036Z,82.70
2018-09-12T04:31:48.007Z,82.60
2018-09-12T04:32:48.017Z,82.03
2018-09-12T04:33:48.045Z,80.78
2018-09-12T04:34:48.025Z,80.97
2018-09-12T04:35:48.081Z,82.08
2018-09-12T04:36:48.027Z,81.16
2018-09-12T04:37:48.084Z,81.64
2018-09-12T04:38:48.057Z,82.85
2018-09-12T04:39:48.023Z,83.71
2018-09-12T04:40:48.032Z,82.12
2018-09-12T04:41:48.039Z,81.84
2018-09-12T04:42:48.059Z,81.93
2018-09-12T04:43:48.025Z,82.31
2018-09-12T04:44:48.026Z,81.35
2018-09-12T04:45:47.996Z,81.70
2018-09-12T04:46:48.111Z,82.51
2018-09-12T04:47:47.999Z,79.57
2018-09-12T04:48:48.045Z,78.90
2018-09-12T04:49:48.078Z,78.13
2018-09-12T04:50:48.070Z,79.76
2018-09-12T04:51:48.040Z,80.87
2018-09-12T04:52:48.089Z,80.30
2018-09-12T04:53:48.071Z,80.34
2018-09-12T04:54:48.121Z,79.91
2018-09-12T04:55:48.054Z,81.84
2018-09-12T04:56:48.043Z,81.74
2018-09-12T04:57:48.100Z,81.98
2018-09-12T04:58:48.018Z,80.97
2018-09-12T04:59:48.336Z,81.16
2018-09-12T05:00:48.040Z,81.51
2018-09-12T05:01:48.009Z,81.16
2018-09-12T05:02:48.012Z,81.60
2018-09-12T05:03:48.054Z,83.86
2018-09-12T05:04:48.036Z,85.39
2018-09-12T05:05:48.008Z,87.27
2018-09-12T05:06:48.076Z,87.94
2018-09-12T05:07:48.053Z,86.74
2018-09-12T05:08:48.052Z,86.25
2018-09-12T05:09:48.165Z,86.16
2018-09-12T05:10:48.060Z,84.86
2018-09-12T05:11:48.048Z,85.68
2018-09-12T05:12:48.063Z,85.15
2018-09-12T05:13:48.062Z,85.05
2018-09-12T05:14:48.046Z,83.04
2018-09-12T05:15:48.080Z,81.64
2018-09-12T05:16:48.100Z,81.30
2018-09-12T05:17:48.103Z,82.27
2018-09-12T05:18:48.100Z,82.37
2018-09-12T05:19:48.030Z,81.84
2018-09-12T05:20:48.044Z,81.93
2018-09-12T05:21:48.020Z,82.75
2018-09-12T05:22:48.027Z,82.75
2018-09-12T05:23:48.060Z,83.42
2018-09-12T05:24:48.112Z,85.30
2018-09-12T05:25:48.033Z,86.64
2018-09-12T05:26:48.054Z,86.16
2018-09-12T05:27:48.043Z,86.64
2018-09-12T05:28:48.015Z,86.64
2018-09-12T05:29:48.076Z,84.00
2018-09-12T05:30:48.067Z,83.47
2018-09-12T05:31:48.075Z,83.75
2018-09-12T05:32:48.097Z,84.48
2018-09-12T05:33:48.089Z,83.94
2018-09-12T05:34:48.018Z,84.23
2018-09-12T05:35:48.065Z,85.05
2018-09-12T05:36:48.106Z,85.72
2018-09-12T05:37:48.081Z,85.53
2018-09-12T05:38:48.063Z,85.25
2018-09-12T05:39:48.149Z,84.95
2018-09-12T05:40:48.073Z,82.51
2018-09-12T05:41:48.038Z,82.79
2018-09-12T05:42:48.048Z,84.14
2018-09-12T05:43:48.048Z,84.52
2018-09-12T05:44:48.077Z,85.72
2018-09-12T05:45:48.056Z,86.40
2018-09-12T05:46:48.071Z,85.28
2018-09-12T05:47:48.053Z,84.33
2018-09-12T05:48:48.067Z,85.00
2018-09-12T05:49:48.071Z,84.77
2018-09-12T05:50:48.060Z,86.30
2018-09-12T05:51:48.102Z,86.21
2018-09-12T05:52:48.065Z,83.56
2018-09-12T05:53:48.085Z,82.89
2018-09-12T05:54:48.076Z,83.47
2018-09-12T05:55:48.124Z,82.89
2018-09-12T05:56:48.163Z,84.71
2018-09-12T05:57:48.099Z,84.52
2018-09-12T05:58:48.085Z,83.12
2018-09-12T05:59:48.128Z,82.84
2018-09-12T06:00:48.116Z,83.98
2018-09-12T06:01:48.152Z,84.18
2018-09-12T06:02:48.154Z,83.03
2018-09-12T06:03:48.101Z,82.35
2018-09-12T06:04:48.138Z,83.22
2018-09-12T06:05:48.124Z,81.63
2018-09-12T06:08:18.258Z,81.05
2018-09-12T06:09:18.045Z,82.10
2018-09-12T06:11:02.781Z,83.36
2018-09-12T06:12:12.305Z,83.51
2018-09-12T06:13:56.244Z,84.47
2018-09-12T06:14:56.229Z,85.04
2018-09-12T06:15:56.240Z,85.91
2018-09-12T06:16:56.228Z,84.08
2018-09-12T06:17:56.254Z,84.03
2018-09-12T06:18:56.213Z,84.85
2018-09-12T06:19:56.217Z,84.31
2018-09-12T06:20:56.219Z,84.22
2018-09-12T06:21:56.225Z,84.47
2018-09-12T06:22:56.223Z,84.95
2018-09-12T06:23:56.225Z,83.74
2018-09-12T06:24:56.228Z,84.51
2018-09-12T06:26:05.842Z,84.99
2018-09-12T06:27:49.656Z,85.85
2018-09-12T06:28:49.626Z,84.51
2018-09-12T06:29:49.637Z,84.41
2018-09-12T06:30:49.740Z,84.70
2018-09-12T06:31:49.785Z,83.16
2018-09-12T06:32:49.641Z,84.12
2018-09-12T06:33:49.635Z,82.20
2018-09-12T06:34:49.630Z,82.20
2018-09-12T06:35:49.635Z,83.74
2018-09-12T06:36:49.635Z,82.15
2018-09-12T06:37:49.800Z,84.55
2018-09-12T06:38:49.666Z,84.31
2018-09-12T06:39:49.690Z,84.31
2018-09-12T06:40:49.649Z,84.51
2018-09-12T06:41:49.655Z,83.07
2018-09-12T06:42:49.668Z,82.87
2018-09-12T06:43:49.648Z,83.11
